sensor_id;sensor_type;location;lat;lon;timestamp;pressure;altitude;pressure_sealevel;temperature;humidity
44359;BME280;30077;52.474;13.326;2022-08-01T00:02:40;100583.34;;;21.24;70.67
44359;BME280;30077;52.474;13.326;2022-08-01T00:07:40;100592.47;;;21.23;71.18
44359;BME280;30077;52.474;13.326;2022-08-01T00:12:41;100582.47;;;21.13;72.96
44359;BME280;30077;52.474;13.326;2022-08-01T00:17:42;100583.25;;;20.95;75.00
44359;BME280;30077;52.474;13.326;2022-08-01T00:22:43;100585.00;;;20.96;74.95
44359;BME280;30077;52.474;13.326;2022-08-01T00:27:43;100585.69;;;20.88;76.25
44359;BME280;30077;52.474;13.326;2022-08-01T00:32:43;100594.69;;;20.88;76.74
44359;BME280;30077;52.474;13.326;2022-08-01T00:37:44;100587.50;;;20.87;77.05
44359;BME280;30077;52.474;13.326;2022-08-01T00:42:44;100580.97;;;20.90;77.29
44359;BME280;30077;52.474;13.326;2022-08-01T00:47:45;100582.09;;;20.87;77.43
44359;BME280;30077;52.474;13.326;2022-08-01T00:52:45;100598.78;;;20.83;78.11
44359;BME280;30077;52.474;13.326;2022-08-01T00:57:46;100582.63;;;20.72;78.68
44359;BME280;30077;52.474;13.326;2022-08-01T01:02:47;100572.31;;;20.65;79.52
44359;BME280;30077;52.474;13.326;2022-08-01T01:07:54;100575.59;;;20.59;80.58
44359;BME280;30077;52.474;13.326;2022-08-01T01:13:05;100573.31;;;20.64;80.03
44359;BME280;30077;52.474;13.326;2022-08-01T01:18:12;100577.47;;;20.68;79.90
44359;BME280;30077;52.474;13.326;2022-08-01T01:23:34;100568.91;;;20.73;79.98
44359;BME280;30077;52.474;13.326;2022-08-01T01:29:00;100575.47;;;20.71;80.66
44359;BME280;30077;52.474;13.326;2022-08-01T01:34:02;100568.91;;;20.63;81.07
44359;BME280;30077;52.474;13.326;2022-08-01T01:39:04;100564.59;;;20.61;81.55
44359;BME280;30077;52.474;13.326;2022-08-01T01:44:05;100566.00;;;20.55;82.40
44359;BME280;30077;52.474;13.326;2022-08-01T01:49:06;100561.09;;;20.49;83.16
44359;BME280;30077;52.474;13.326;2022-08-01T01:54:10;100559.59;;;20.35;84.18
44359;BME280;30077;52.474;13.326;2022-08-01T01:59:10;100556.22;;;20.22;85.53
44359;BME280;30077;52.474;13.326;2022-08-01T02:04:13;100565.75;;;20.16;86.13
44359;BME280;30077;52.474;13.326;2022-08-01T02:09:16;100563.84;;;20.07;86.75
44359;BME280;30077;52.474;13.326;2022-08-01T02:14:19;100562.91;;;19.97;87.69
44359;BME280;30077;52.474;13.326;2022-08-01T02:19:20;100569.88;;;19.90;88.36
44359;BME280;30077;52.474;13.326;2022-08-01T02:24:32;100568.69;;;19.83;89.41
44359;BME280;30077;52.474;13.326;2022-08-01T02:29:42;100570.19;;;19.76;90.12
44359;BME280;30077;52.474;13.326;2022-08-01T02:34:46;100563.78;;;19.77;90.42
44359;BME280;30077;52.474;13.326;2022-08-01T02:39:51;100567.41;;;19.87;90.55
44359;BME280;30077;52.474;13.326;2022-08-01T02:44:53;100563.91;;;19.96;90.26
44359;BME280;30077;52.474;13.326;2022-08-01T02:49:55;100560.78;;;20.01;90.13
44359;BME280;30077;52.474;13.326;2022-08-01T02:54:56;100556.97;;;20.03;90.23
44359;BME280;30077;52.474;13.326;2022-08-01T02:59:58;100550.56;;;20.04;90.56
44359;BME280;30077;52.474;13.326;2022-08-01T03:05:00;100561.09;;;19.98;91.16
44359;BME280;30077;52.474;13.326;2022-08-01T03:10:01;100552.88;;;19.88;92.02
44359;BME280;30077;52.474;13.326;2022-08-01T03:15:04;100568.19;;;19.78;92.82
44359;BME280;30077;52.474;13.326;2022-08-01T03:20:05;100566.28;;;19.68;93.69
44359;BME280;30077;52.474;13.326;2022-08-01T03:25:07;100573.66;;;19.66;93.67
44359;BME280;30077;52.474;13.326;2022-08-01T03:30:08;100575.88;;;19.61;94.16
44359;BME280;30077;52.474;13.326;2022-08-01T03:35:10;100575.88;;;19.61;94.09
44359;BME280;30077;52.474;13.326;2022-08-01T03:40:18;100582.78;;;19.65;94.27
44359;BME280;30077;52.474;13.326;2022-08-01T03:45:26;100589.50;;;19.71;93.94
44359;BME280;30077;52.474;13.326;2022-08-01T03:50:32;100579.50;;;19.83;93.36
44359;BME280;30077;52.474;13.326;2022-08-01T03:55:35;100579.63;;;20.02;92.06
44359;BME280;30077;52.474;13.326;2022-08-01T04:00:38;100585.97;;;20.12;91.50
44359;BME280;30077;52.474;13.326;2022-08-01T04:05:42;100590.41;;;20.13;91.96
44359;BME280;30077;52.474;13.326;2022-08-01T04:10:43;100580.00;;;20.18;91.72
44359;BME280;30077;52.474;13.326;2022-08-01T04:15:43;100584.91;;;20.25;91.58
44359;BME280;30077;52.474;13.326;2022-08-01T04:20:43;100580.75;;;20.20;92.26
44359;BME280;30077;52.474;13.326;2022-08-01T04:25:44;100586.03;;;20.22;93.35
44359;BME280;30077;52.474;13.326;2022-08-01T04:30:46;100590.91;;;20.28;93.95
44359;BME280;30077;52.474;13.326;2022-08-01T04:35:50;100594.22;;;20.32;94.27
44359;BME280;30077;52.474;13.326;2022-08-01T04:40:52;100602.44;;;20.20;94.99
44359;BME280;30077;52.474;13.326;2022-08-01T04:45:54;100609.38;;;20.13;96.29
44359;BME280;30077;52.474;13.326;2022-08-01T04:50:55;100616.16;;;20.08;96.81
44359;BME280;30077;52.474;13.326;2022-08-01T04:55:55;100617.63;;;20.12;97.04
44359;BME280;30077;52.474;13.326;2022-08-01T05:00:55;100617.34;;;20.15;96.90
44359;BME280;30077;52.474;13.326;2022-08-01T05:05:55;100617.34;;;20.15;96.68
44359;BME280;30077;52.474;13.326;2022-08-01T05:10:56;100611.28;;;20.23;96.86
44359;BME280;30077;52.474;13.326;2022-08-01T05:15:56;100615.72;;;20.24;97.34
44359;BME280;30077;52.474;13.326;2022-08-01T05:20:56;100619.13;;;20.26;97.43
44359;BME280;30077;52.474;13.326;2022-08-01T05:25:56;100614.81;;;20.44;96.19
44359;BME280;30077;52.474;13.326;2022-08-01T05:30:58;100610.09;;;20.57;95.80
44359;BME280;30077;52.474;13.326;2022-08-01T05:35:58;100608.69;;;20.63;96.44
44359;BME280;30077;52.474;13.326;2022-08-01T05:40:58;100614.34;;;20.81;94.84
44359;BME280;30077;52.474;13.326;2022-08-01T05:45:59;100623.22;;;20.92;93.98
44359;BME280;30077;52.474;13.326;2022-08-01T05:50:59;100627.94;;;20.90;94.34
44359;BME280;30077;52.474;13.326;2022-08-01T05:56:00;100627.59;;;21.14;92.85
44359;BME280;30077;52.474;13.326;2022-08-01T06:01:01;100632.16;;;21.24;92.30
44359;BME280;30077;52.474;13.326;2022-08-01T06:06:02;100637.59;;;21.14;93.14
44359;BME280;30077;52.474;13.326;2022-08-01T06:11:03;100636.75;;;21.13;93.13
44359;BME280;30077;52.474;13.326;2022-08-01T06:16:04;100637.72;;;21.12;93.40
44359;BME280;30077;52.474;13.326;2022-08-01T06:21:04;100644.41;;;21.08;95.43
44359;BME280;30077;52.474;13.326;2022-08-01T06:26:04;100645.38;;;20.67;100.00
44359;BME280;30077;52.474;13.326;2022-08-01T06:31:06;100653.09;;;20.30;100.00
44359;BME280;30077;52.474;13.326;2022-08-01T06:36:07;100655.41;;;20.34;100.00
44359;BME280;30077;52.474;13.326;2022-08-01T06:41:08;100659.31;;;20.62;100.00
44359;BME280;30077;52.474;13.326;2022-08-01T06:46:09;100658.44;;;21.23;98.88
44359;BME280;30077;52.474;13.326;2022-08-01T06:51:10;100653.59;;;21.77;95.92
44359;BME280;30077;52.474;13.326;2022-08-01T06:56:16;100661.75;;;21.96;93.11
44359;BME280;30077;52.474;13.326;2022-08-01T07:01:17;100666.03;;;21.70;94.70
44359;BME280;30077;52.474;13.326;2022-08-01T07:06:17;100650.59;;;21.70;95.19
44359;BME280;30077;52.474;13.326;2022-08-01T07:11:26;100658.78;;;22.19;92.36
44359;BME280;30077;52.474;13.326;2022-08-01T07:16:26;100666.91;;;22.48;90.18
44359;BME280;30077;52.474;13.326;2022-08-01T07:21:27;100664.31;;;22.07;90.74
44359;BME280;30077;52.474;13.326;2022-08-01T07:26:27;100661.41;;;21.60;93.37
44359;BME280;30077;52.474;13.326;2022-08-01T07:31:28;100665.88;;;21.71;91.08
44359;BME280;30077;52.474;13.326;2022-08-01T07:36:28;100669.34;;;22.22;88.70
44359;BME280;30077;52.474;13.326;2022-08-01T07:41:31;100679.63;;;22.47;84.90
44359;BME280;30077;52.474;13.326;2022-08-01T07:46:31;100680.22;;;22.41;85.08
44359;BME280;30077;52.474;13.326;2022-08-01T07:51:33;100680.03;;;21.84;86.87
44359;BME280;30077;52.474;13.326;2022-08-01T07:56:33;100684.03;;;21.71;87.86
44359;BME280;30077;52.474;13.326;2022-08-01T08:01:33;100691.78;;;22.04;86.27
44359;BME280;30077;52.474;13.326;2022-08-01T08:06:34;100705.78;;;21.90;85.47
44359;BME280;30077;52.474;13.326;2022-08-01T08:11:34;100696.72;;;21.60;85.68
44359;BME280;30077;52.474;13.326;2022-08-01T08:16:34;100698.47;;;21.31;86.18
44359;BME280;30077;52.474;13.326;2022-08-01T08:21:34;100717.72;;;21.28;85.74
44359;BME280;30077;52.474;13.326;2022-08-01T08:26:35;100708.34;;;21.32;84.60
44359;BME280;30077;52.474;13.326;2022-08-01T08:31:35;100713.22;;;21.98;81.89
44359;BME280;30077;52.474;13.326;2022-08-01T08:36:35;100704.97;;;22.48;78.97
44359;BME280;30077;52.474;13.326;2022-08-01T08:41:36;100712.50;;;22.64;78.10
44359;BME280;30077;52.474;13.326;2022-08-01T08:46:42;100706.56;;;23.07;75.11
44359;BME280;30077;52.474;13.326;2022-08-01T08:51:43;100708.69;;;23.41;72.22
44359;BME280;30077;52.474;13.326;2022-08-01T08:56:45;100710.84;;;23.10;72.52
44359;BME280;30077;52.474;13.326;2022-08-01T09:01:47;100714.78;;;23.52;71.25
44359;BME280;30077;52.474;13.326;2022-08-01T09:06:47;100731.78;;;22.99;71.29
44359;BME280;30077;52.474;13.326;2022-08-01T09:11:48;100727.16;;;22.24;74.14
44359;BME280;30077;52.474;13.326;2022-08-01T09:17:04;100730.69;;;22.53;74.75
44359;BME280;30077;52.474;13.326;2022-08-01T09:22:13;100738.94;;;23.00;74.17
44359;BME280;30077;52.474;13.326;2022-08-01T09:27:21;100756.75;;;23.32;72.41
44359;BME280;30077;52.474;13.326;2022-08-01T09:32:24;100745.50;;;23.45;72.75
44359;BME280;30077;52.474;13.326;2022-08-01T09:37:30;100742.47;;;23.48;71.81
44359;BME280;30077;52.474;13.326;2022-08-01T09:42:31;100761.03;;;23.72;71.58
44359;BME280;30077;52.474;13.326;2022-08-01T09:47:38;100760.72;;;23.38;71.64
44359;BME280;30077;52.474;13.326;2022-08-01T09:52:39;100769.28;;;23.05;72.86
44359;BME280;30077;52.474;13.326;2022-08-01T09:57:39;100774.47;;;22.99;73.55
44359;BME280;30077;52.474;13.326;2022-08-01T10:02:40;100775.63;;;22.77;74.09
44359;BME280;30077;52.474;13.326;2022-08-01T10:07:58;100774.16;;;22.73;73.94
44359;BME280;30077;52.474;13.326;2022-08-01T10:12:59;100789.78;;;23.10;71.99
44359;BME280;30077;52.474;13.326;2022-08-01T10:18:01;100785.13;;;23.20;71.94
44359;BME280;30077;52.474;13.326;2022-08-01T10:23:03;100791.84;;;23.35;71.92
44359;BME280;30077;52.474;13.326;2022-08-01T10:28:15;100790.72;;;23.28;72.91
44359;BME280;30077;52.474;13.326;2022-08-01T10:33:22;100791.31;;;23.22;73.53
44359;BME280;30077;52.474;13.326;2022-08-01T10:38:23;100794.66;;;23.43;72.52
44359;BME280;30077;52.474;13.326;2022-08-01T10:43:23;100790.75;;;23.09;73.57
44359;BME280;30077;52.474;13.326;2022-08-01T10:48:29;100801.00;;;23.34;72.42
44359;BME280;30077;52.474;13.326;2022-08-01T10:53:30;100789.59;;;23.21;72.66
44359;BME280;30077;52.474;13.326;2022-08-01T10:58:35;100793.06;;;23.13;72.90
44359;BME280;30077;52.474;13.326;2022-08-01T11:03:38;100787.06;;;23.10;71.99
44359;BME280;30077;52.474;13.326;2022-08-01T11:08:38;100802.25;;;23.02;72.66
44359;BME280;30077;52.474;13.326;2022-08-01T11:18:58;100795.72;;;23.70;69.36
44359;BME280;30077;52.474;13.326;2022-08-01T11:23:58;100815.59;;;23.43;70.38
44359;BME280;30077;52.474;13.326;2022-08-01T11:29:16;100823.13;;;22.73;74.07
44359;BME280;30077;52.474;13.326;2022-08-01T11:34:17;100836.19;;;22.59;75.77
44359;BME280;30077;52.474;13.326;2022-08-01T11:39:17;100832.75;;;22.07;78.93
44359;BME280;30077;52.474;13.326;2022-08-01T11:44:22;100842.19;;;21.94;80.13
44359;BME280;30077;52.474;13.326;2022-08-01T11:54:48;100846.63;;;22.93;77.07
44359;BME280;30077;52.474;13.326;2022-08-01T11:59:51;100845.03;;;23.76;73.47
44359;BME280;30077;52.474;13.326;2022-08-01T12:04:59;100849.34;;;24.24;70.78
44359;BME280;30077;52.474;13.326;2022-08-01T12:10:13;100840.38;;;24.32;67.53
44359;BME280;30077;52.474;13.326;2022-08-01T12:15:14;100845.75;;;24.69;65.03
44359;BME280;30077;52.474;13.326;2022-08-01T12:20:18;100845.03;;;24.67;65.22
44359;BME280;30077;52.474;13.326;2022-08-01T12:25:19;100842.44;;;25.02;63.92
44359;BME280;30077;52.474;13.326;2022-08-01T12:30:21;100846.06;;;24.84;63.31
44359;BME280;30077;52.474;13.326;2022-08-01T12:35:24;100841.34;;;24.94;62.23
44359;BME280;30077;52.474;13.326;2022-08-01T12:40:26;100846.78;;;25.30;61.57
44359;BME280;30077;52.474;13.326;2022-08-01T12:45:39;100846.75;;;25.56;60.91
44359;BME280;30077;52.474;13.326;2022-08-01T12:50:46;100826.66;;;26.00;59.87
44359;BME280;30077;52.474;13.326;2022-08-01T12:55:54;100825.88;;;26.15;59.42
44359;BME280;30077;52.474;13.326;2022-08-01T13:01:04;100825.88;;;26.07;60.06
44359;BME280;30077;52.474;13.326;2022-08-01T13:06:14;100831.03;;;25.50;61.04
44359;BME280;30077;52.474;13.326;2022-08-01T13:11:15;100832.16;;;24.95;63.59
44359;BME280;30077;52.474;13.326;2022-08-01T13:16:21;100827.16;;;24.37;64.94
44359;BME280;30077;52.474;13.326;2022-08-01T13:21:26;100838.59;;;23.95;65.91
44359;BME280;30077;52.474;13.326;2022-08-01T13:26:43;100838.69;;;24.03;64.99
44359;BME280;30077;52.474;13.326;2022-08-01T13:31:44;100839.59;;;24.22;64.37
44359;BME280;30077;52.474;13.326;2022-08-01T13:36:44;100839.81;;;24.74;63.13
44359;BME280;30077;52.474;13.326;2022-08-01T13:41:46;100848.81;;;25.28;61.12
44359;BME280;30077;52.474;13.326;2022-08-01T13:46:46;100834.38;;;25.70;58.39
44359;BME280;30077;52.474;13.326;2022-08-01T13:51:47;100833.53;;;26.04;57.64
44359;BME280;30077;52.474;13.326;2022-08-01T13:56:50;100843.53;;;26.46;56.51
44359;BME280;30077;52.474;13.326;2022-08-01T14:01:51;100859.06;;;26.29;55.42
44359;BME280;30077;52.474;13.326;2022-08-01T14:06:51;100858.50;;;26.68;54.83
44359;BME280;30077;52.474;13.326;2022-08-01T14:11:51;100855.56;;;26.53;54.50
44359;BME280;30077;52.474;13.326;2022-08-01T14:16:52;100863.19;;;25.90;56.00
44359;BME280;30077;52.474;13.326;2022-08-01T14:21:52;100881.88;;;25.77;55.99
44359;BME280;30077;52.474;13.326;2022-08-01T14:26:53;100879.00;;;25.27;57.32
44359;BME280;30077;52.474;13.326;2022-08-01T14:31:53;100879.25;;;24.97;58.47
44359;BME280;30077;52.474;13.326;2022-08-01T14:36:53;100884.09;;;24.68;59.81
44359;BME280;30077;52.474;13.326;2022-08-01T14:41:54;100869.06;;;24.82;59.95
44359;BME280;30077;52.474;13.326;2022-08-01T14:46:54;100877.16;;;25.09;58.73
44359;BME280;30077;52.474;13.326;2022-08-01T14:51:55;100879.28;;;25.41;58.59
44359;BME280;30077;52.474;13.326;2022-08-01T14:56:55;100871.41;;;26.41;55.38
44359;BME280;30077;52.474;13.326;2022-08-01T15:01:55;100877.59;;;26.01;56.13
44359;BME280;30077;52.474;13.326;2022-08-01T15:06:56;100889.59;;;24.58;62.24
44359;BME280;30077;52.474;13.326;2022-08-01T15:11:56;100901.72;;;24.00;64.48
44359;BME280;30077;52.474;13.326;2022-08-01T15:16:57;100910.28;;;24.06;64.47
44359;BME280;30077;52.474;13.326;2022-08-01T15:21:57;100914.34;;;23.92;64.82
44359;BME280;30077;52.474;13.326;2022-08-01T15:26:57;100915.91;;;24.04;64.03
44359;BME280;30077;52.474;13.326;2022-08-01T15:31:58;100903.25;;;23.75;64.49
44359;BME280;30077;52.474;13.326;2022-08-01T15:36:58;100904.53;;;24.09;63.67
44359;BME280;30077;52.474;13.326;2022-08-01T15:42:00;100912.69;;;24.46;62.62
44359;BME280;30077;52.474;13.326;2022-08-01T15:47:03;100915.44;;;24.64;62.47
44359;BME280;30077;52.474;13.326;2022-08-01T15:52:05;100918.69;;;24.49;62.19
44359;BME280;30077;52.474;13.326;2022-08-01T15:57:05;100925.44;;;24.73;61.58
44359;BME280;30077;52.474;13.326;2022-08-01T16:02:06;100913.63;;;24.72;61.68
44359;BME280;30077;52.474;13.326;2022-08-01T16:07:06;100914.81;;;25.06;60.69
44359;BME280;30077;52.474;13.326;2022-08-01T16:12:07;100914.72;;;24.80;61.07
44359;BME280;30077;52.474;13.326;2022-08-01T16:17:09;100921.09;;;24.53;61.73
44359;BME280;30077;52.474;13.326;2022-08-01T16:22:09;100925.00;;;24.50;62.11
44359;BME280;30077;52.474;13.326;2022-08-01T16:27:09;100925.16;;;24.48;61.46
44359;BME280;30077;52.474;13.326;2022-08-01T16:32:10;100925.47;;;24.36;61.62
44359;BME280;30077;52.474;13.326;2022-08-01T16:37:10;100919.28;;;24.43;61.86
44359;BME280;30077;52.474;13.326;2022-08-01T16:42:10;100924.25;;;24.93;60.15
44359;BME280;30077;52.474;13.326;2022-08-01T16:47:11;100930.03;;;25.26;59.34
44359;BME280;30077;52.474;13.326;2022-08-01T16:52:11;100926.75;;;25.05;59.31
44359;BME280;30077;52.474;13.326;2022-08-01T16:57:12;100921.84;;;25.26;58.79
44359;BME280;30077;52.474;13.326;2022-08-01T17:02:15;100922.00;;;25.25;58.29
44359;BME280;30077;52.474;13.326;2022-08-01T17:07:15;100923.16;;;25.04;59.44
44359;BME280;30077;52.474;13.326;2022-08-01T17:12:16;100929.41;;;24.79;58.75
44359;BME280;30077;52.474;13.326;2022-08-01T17:17:16;100925.63;;;24.07;60.38
44359;BME280;30077;52.474;13.326;2022-08-01T17:22:17;100935.84;;;24.05;59.99
44359;BME280;30077;52.474;13.326;2022-08-01T17:27:18;100930.03;;;23.80;60.67
44359;BME280;30077;52.474;13.326;2022-08-01T17:32:18;100922.16;;;23.77;60.80
44359;BME280;30077;52.474;13.326;2022-08-01T17:37:21;100927.56;;;23.87;60.47
44359;BME280;30077;52.474;13.326;2022-08-01T17:42:24;100933.47;;;23.82;60.82
44359;BME280;30077;52.474;13.326;2022-08-01T17:47:29;100928.19;;;23.71;61.46
44359;BME280;30077;52.474;13.326;2022-08-01T17:52:32;100928.91;;;23.63;61.85
44359;BME280;30077;52.474;13.326;2022-08-01T17:57:33;100937.69;;;23.57;61.93
44359;BME280;30077;52.474;13.326;2022-08-01T18:02:33;100940.84;;;23.33;61.99
44359;BME280;30077;52.474;13.326;2022-08-01T18:07:34;100936.84;;;23.37;61.74
44359;BME280;30077;52.474;13.326;2022-08-01T18:12:34;100930.97;;;23.32;61.78
44359;BME280;30077;52.474;13.326;2022-08-01T18:17:34;100925.53;;;23.22;61.63
44359;BME280;30077;52.474;13.326;2022-08-01T18:22:35;100932.53;;;23.05;62.10
44359;BME280;30077;52.474;13.326;2022-08-01T18:27:35;100931.13;;;23.01;62.49
44359;BME280;30077;52.474;13.326;2022-08-01T18:32:36;100943.97;;;22.90;63.01
44359;BME280;30077;52.474;13.326;2022-08-01T18:37:36;100947.97;;;22.76;63.87
44359;BME280;30077;52.474;13.326;2022-08-01T18:42:36;100956.53;;;22.62;64.69
44359;BME280;30077;52.474;13.326;2022-08-01T18:47:37;100949.66;;;22.48;65.07
44359;BME280;30077;52.474;13.326;2022-08-01T18:52:37;100960.75;;;22.35;65.59
44359;BME280;30077;52.474;13.326;2022-08-01T18:57:38;100961.56;;;22.26;66.26
44359;BME280;30077;52.474;13.326;2022-08-01T19:02:40;100974.72;;;22.21;66.46
44359;BME280;30077;52.474;13.326;2022-08-01T19:07:41;100976.72;;;22.19;66.44
44359;BME280;30077;52.474;13.326;2022-08-01T19:12:41;100989.44;;;22.18;66.45
44359;BME280;30077;52.474;13.326;2022-08-01T19:17:42;100983.28;;;22.16;66.85
44359;BME280;30077;52.474;13.326;2022-08-01T19:22:43;100986.78;;;22.07;66.96
44359;BME280;30077;52.474;13.326;2022-08-01T19:27:48;100990.72;;;21.93;67.50
44359;BME280;30077;52.474;13.326;2022-08-01T19:32:49;101005.63;;;21.78;68.21
44359;BME280;30077;52.474;13.326;2022-08-01T19:37:50;101004.44;;;21.71;68.82
44359;BME280;30077;52.474;13.326;2022-08-01T19:42:52;101004.00;;;21.66;69.38
44359;BME280;30077;52.474;13.326;2022-08-01T19:47:53;101014.84;;;21.66;69.66
44359;BME280;30077;52.474;13.326;2022-08-01T19:52:55;101020.59;;;21.51;70.01
44359;BME280;30077;52.474;13.326;2022-08-01T19:57:56;101026.81;;;21.42;69.54
44359;BME280;30077;52.474;13.326;2022-08-01T20:02:58;101028.91;;;21.38;69.35
44359;BME280;30077;52.474;13.326;2022-08-01T20:07:58;101030.13;;;21.46;68.70
44359;BME280;30077;52.474;13.326;2022-08-01T20:12:59;101037.41;;;21.45;68.79
44359;BME280;30077;52.474;13.326;2022-08-01T20:18:00;101050.00;;;21.46;68.26
44359;BME280;30077;52.474;13.326;2022-08-01T20:23:00;101050.25;;;21.43;68.32
44359;BME280;30077;52.474;13.326;2022-08-01T20:28:01;101059.97;;;21.46;67.59
44359;BME280;30077;52.474;13.326;2022-08-01T20:33:01;101063.84;;;21.32;67.70
44359;BME280;30077;52.474;13.326;2022-08-01T20:38:03;101069.44;;;21.19;68.16
44359;BME280;30077;52.474;13.326;2022-08-01T20:43:06;101079.91;;;21.12;68.21
44359;BME280;30077;52.474;13.326;2022-08-01T20:48:10;101090.69;;;21.03;69.22
44359;BME280;30077;52.474;13.326;2022-08-01T20:53:10;101085.16;;;20.93;69.32
44359;BME280;30077;52.474;13.326;2022-08-01T20:58:26;101094.00;;;20.95;68.98
44359;BME280;30077;52.474;13.326;2022-08-01T21:03:38;101097.97;;;20.91;69.38
44359;BME280;30077;52.474;13.326;2022-08-01T21:08:43;101105.38;;;20.89;69.75
44359;BME280;30077;52.474;13.326;2022-08-01T21:13:44;101099.81;;;20.79;70.34
44359;BME280;30077;52.474;13.326;2022-08-01T21:18:54;101100.44;;;20.72;71.16
44359;BME280;30077;52.474;13.326;2022-08-01T21:23:58;101099.84;;;20.57;72.23
44359;BME280;30077;52.474;13.326;2022-08-01T21:29:02;101108.78;;;20.46;73.06
44359;BME280;30077;52.474;13.326;2022-08-01T21:34:04;101108.03;;;20.33;73.88
44359;BME280;30077;52.474;13.326;2022-08-01T21:39:06;101113.69;;;20.30;74.59
44359;BME280;30077;52.474;13.326;2022-08-01T21:44:08;101126.03;;;20.34;74.36
44359;BME280;30077;52.474;13.326;2022-08-01T21:49:13;101126.53;;;20.39;75.51
44359;BME280;30077;52.474;13.326;2022-08-01T21:54:23;101136.13;;;20.43;75.49
44359;BME280;30077;52.474;13.326;2022-08-01T21:59:42;101133.22;;;20.57;77.04
44359;BME280;30077;52.474;13.326;2022-08-01T22:05:03;101136.47;;;20.74;76.56
44359;BME280;30077;52.474;13.326;2022-08-01T22:10:04;101128.03;;;20.65;76.24
44359;BME280;30077;52.474;13.326;2022-08-01T22:15:06;101139.38;;;20.48;76.75
44359;BME280;30077;52.474;13.326;2022-08-01T22:20:07;101148.69;;;20.33;77.26
44359;BME280;30077;52.474;13.326;2022-08-01T22:25:07;101148.16;;;20.16;78.55
44359;BME280;30077;52.474;13.326;2022-08-01T22:30:10;101160.69;;;20.06;79.19
44359;BME280;30077;52.474;13.326;2022-08-01T22:35:15;101160.41;;;19.98;78.10
44359;BME280;30077;52.474;13.326;2022-08-01T22:40:16;101156.22;;;19.94;77.77
44359;BME280;30077;52.474;13.326;2022-08-01T22:45:24;101151.78;;;19.93;77.80
44359;BME280;30077;52.474;13.326;2022-08-01T22:50:43;101160.88;;;19.92;77.79
44359;BME280;30077;52.474;13.326;2022-08-01T22:55:52;101151.72;;;19.82;78.60
44359;BME280;30077;52.474;13.326;2022-08-01T23:00:54;101151.31;;;19.75;78.80
44359;BME280;30077;52.474;13.326;2022-08-01T23:06:02;101150.94;;;19.68;79.60
44359;BME280;30077;52.474;13.326;2022-08-01T23:11:04;101155.06;;;19.61;79.97
44359;BME280;30077;52.474;13.326;2022-08-01T23:16:06;101149.88;;;19.58;80.64
44359;BME280;30077;52.474;13.326;2022-08-01T23:21:07;101156.38;;;19.56;81.07
44359;BME280;30077;52.474;13.326;2022-08-01T23:26:09;101143.94;;;19.53;81.01
44359;BME280;30077;52.474;13.326;2022-08-01T23:31:10;101151.94;;;19.55;81.25
44359;BME280;30077;52.474;13.326;2022-08-01T23:36:10;101156.38;;;19.56;81.50
44359;BME280;30077;52.474;13.326;2022-08-01T23:41:10;101148.88;;;19.59;81.38
44359;BME280;30077;52.474;13.326;2022-08-01T23:46:13;101155.53;;;19.55;81.67
44359;BME280;30077;52.474;13.326;2022-08-01T23:51:14;101159.66;;;19.48;81.82
44359;BME280;30077;52.474;13.326;2022-08-01T23:56:14;101156.66;;;19.40;82.61
